Time;durP1;ratioP1;P1;durP2;ratioP2;P2;SDS_P1;SDS_P2;PMS_P1;PMS_P2;Temp;Humidity;BMP_temperature;BMP_pressure;BME280_temperature;BME280_humidity;BME280_pressure;Samples;Min_cycle;Max_cycle;Signal;HPM_P1;HPM_P2
2022/05/16 00:02:09;;;;;;;2.28;0.90;;;19.30;52.80;;;;;;5070397;28;20036;-72
2022/05/16 00:04:38;;;;;;;4.50;1.05;;;19.30;52.90;;;;;;5070593;28;20384;-72
2022/05/16 00:07:03;;;;;;;3.15;0.95;;;19.30;52.90;;;;;;5070318;28;20522;-72
2022/05/16 00:09:29;;;;;;;2.42;0.80;;;19.30;52.90;;;;;;5070363;28;20036;-72
2022/05/16 00:11:55;;;;;;;2.47;1.30;;;19.30;52.90;;;;;;5070199;28;20045;-72
2022/05/16 00:14:20;;;;;;;3.47;0.82;;;19.30;53.00;;;;;;5073150;28;20047;-74
2022/05/16 00:16:46;;;;;;;4.10;1.15;;;19.30;53.00;;;;;;5075476;28;20055;-72
2022/05/16 00:19:11;;;;;;;3.45;1.02;;;19.20;53.00;;;;;;5074283;28;20396;-72
2022/05/16 00:21:37;;;;;;;2.20;1.08;;;19.20;53.00;;;;;;5074189;28;20037;-72
2022/05/16 00:24:03;;;;;;;3.28;0.80;;;19.20;53.00;;;;;;5074196;28;20093;-72
2022/05/16 00:26:29;;;;;;;5.45;0.90;;;19.20;53.10;;;;;;5074036;28;20096;-73
2022/05/16 00:28:58;;;;;;;6.57;1.13;;;19.20;53.10;;;;;;5074041;28;20120;-66
2022/05/16 00:31:23;;;;;;;2.97;1.05;;;19.20;53.10;;;;;;5075284;28;20086;-73
2022/05/16 00:33:49;;;;;;;2.50;0.82;;;19.10;53.10;;;;;;5075087;28;20045;-73
2022/05/16 00:36:15;;;;;;;5.00;1.13;;;19.10;53.20;;;;;;5074155;28;20072;-72
2022/05/16 00:38:40;;;;;;;2.22;1.45;;;19.10;53.20;;;;;;5074139;28;20455;-72
2022/05/16 00:41:07;;;;;;;3.47;1.00;;;19.10;53.20;;;;;;5073820;28;20127;-73
2022/05/16 00:46:30;;;;;;;2.22;0.90;;;19.10;53.20;;;;;;5130212;27;20742;-72
2022/05/16 00:48:57;;;;;;;3.08;1.00;;;19.10;53.30;;;;;;5128969;28;20104;-73
2022/05/16 00:51:27;;;;;;;3.35;0.98;;;19.10;53.30;;;;;;5129202;28;20114;-72
2022/05/16 00:53:56;;;;;;;4.32;1.40;;;19.10;53.30;;;;;;5129197;28;20035;-73
2022/05/16 00:56:25;;;;;;;3.50;1.20;;;19.00;53.30;;;;;;5128883;28;20127;-72
2022/05/16 00:58:52;;;;;;;3.25;1.05;;;19.00;53.40;;;;;;5128805;28;20047;-71
2022/05/16 01:06:54;;;;;;;4.82;0.93;;;19.00;53.30;;;;;;5128391;28;20044;-72
2022/05/16 01:09:20;;;;;;;3.55;1.25;;;19.00;53.30;;;;;;5128727;28;20039;-72
2022/05/16 01:11:46;;;;;;;4.95;1.10;;;19.00;53.30;;;;;;5145868;27;20039;-71
2022/05/16 01:17:20;;;;;;;2.95;0.98;;;19.00;53.40;;;;;;5109731;27;20292;-73
2022/05/16 01:19:47;;;;;;;3.00;0.75;;;19.00;53.40;;;;;;5109838;28;20391;-73
2022/05/16 01:22:32;;;;;;;3.65;0.80;;;19.00;53.40;;;;;;5108314;28;20043;-72
2022/05/16 01:25:04;;;;;;;2.40;1.05;;;19.00;53.40;;;;;;5108714;28;20075;-67
2022/05/16 01:27:40;;;;;;;2.28;0.75;;;19.00;53.40;;;;;;5108721;28;20032;-73
2022/05/16 01:30:06;;;;;;;7.88;0.90;;;18.90;53.30;;;;;;5108619;28;20051;-72
2022/05/16 01:32:32;;;;;;;2.45;1.25;;;18.90;53.30;;;;;;5108227;28;20078;-72
2022/05/16 01:34:57;;;;;;;2.78;1.10;;;18.90;53.30;;;;;;5125348;28;20150;-71
2022/05/16 01:38:18;;;;;;;2.90;0.90;;;18.90;53.30;;;;;;5109442;28;20459;-72
2022/05/16 01:40:10;;;;;;;3.13;0.90;;;18.90;53.30;;;;;;5109225;28;20458;-73
2022/05/16 01:42:35;;;;;;;2.40;0.70;;;18.90;53.30;;;;;;5108366;28;20391;-71
2022/05/16 01:45:01;;;;;;;2.85;0.80;;;18.90;53.30;;;;;;5125011;28;20048;-71
2022/05/16 01:47:27;;;;;;;2.58;0.95;;;18.90;53.30;;;;;;5108224;28;20118;-66
2022/05/16 01:49:52;;;;;;;4.82;1.35;;;18.90;53.30;;;;;;5107848;28;20189;-72
2022/05/16 01:52:18;;;;;;;3.58;1.42;;;18.80;53.30;;;;;;5109199;28;20047;-74
2022/05/16 01:54:43;;;;;;;6.72;1.13;;;18.80;53.30;;;;;;5107772;28;20398;-70
2022/05/16 01:57:09;;;;;;;4.10;0.77;;;18.90;53.30;;;;;;5107699;28;20070;-72
2022/05/16 01:59:37;;;;;;;3.47;0.80;;;18.80;53.30;;;;;;5107939;28;20075;-67
2022/05/16 02:02:03;;;;;;;3.70;1.17;;;18.80;53.30;;;;;;5107829;28;20035;-72
2022/05/16 02:04:29;;;;;;;3.45;1.13;;;18.80;53.30;;;;;;5124714;28;20444;-72
2022/05/16 02:06:54;;;;;;;4.40;1.50;;;18.80;53.30;;;;;;5107850;28;20039;-71
2022/05/16 02:09:20;;;;;;;2.33;0.90;;;18.80;53.30;;;;;;5108747;28;20506;-67
2022/05/16 02:11:45;;;;;;;2.50;0.80;;;18.80;53.30;;;;;;5108777;28;20127;-73
2022/05/16 02:14:14;;;;;;;2.42;1.15;;;18.80;53.20;;;;;;5108658;28;20123;-72
2022/05/16 02:16:40;;;;;;;2.63;1.10;;;18.80;53.20;;;;;;5108295;28;20384;-71
2022/05/16 02:19:06;;;;;;;3.85;1.23;;;18.80;53.30;;;;;;5107415;28;20044;-66
2022/05/16 02:24:48;;;;;;;2.45;0.73;;;18.70;53.20;;;;;;5107372;28;20055;-72
2022/05/16 02:27:02;;;;;;;2.85;0.90;;;18.80;53.30;;;;;;5102714;28;20089;-67
2022/05/16 02:29:28;;;;;;;2.13;0.60;;;18.70;53.20;;;;;;5093801;28;20044;-71
2022/05/16 02:31:54;;;;;;;2.97;1.00;;;18.70;53.20;;;;;;5094867;28;20391;-72
2022/05/16 02:34:20;;;;;;;2.85;0.88;;;18.70;53.20;;;;;;5110549;28;20207;-69
2022/05/16 02:36:46;;;;;;;2.97;0.93;;;18.70;53.20;;;;;;5093213;28;20135;-69
2022/05/16 02:39:13;;;;;;;3.85;1.15;;;18.70;53.20;;;;;;5093836;28;20051;-72
2022/05/16 02:41:39;;;;;;;3.05;1.00;;;18.70;53.20;;;;;;5093398;28;20533;-67
2022/05/16 02:44:05;;;;;;;3.38;0.98;;;18.70;53.20;;;;;;5093412;28;20036;-72
2022/05/16 02:46:31;;;;;;;1.98;0.70;;;18.70;53.20;;;;;;5094739;28;20123;-71
2022/05/16 02:48:57;;;;;;;3.35;0.95;;;18.70;53.20;;;;;;5093515;28;20060;-72
2022/05/16 02:51:24;;;;;;;4.43;0.80;;;18.70;53.20;;;;;;5093431;28;20074;-67
2022/05/16 02:53:50;;;;;;;2.75;0.93;;;18.60;53.10;;;;;;5093411;28;20047;-71
2022/05/16 02:56:15;;;;;;;3.83;1.40;;;18.60;53.20;;;;;;5092922;28;20055;-72
2022/05/16 02:58:43;;;;;;;2.95;0.77;;;18.60;53.10;;;;;;5093032;28;20047;-72
2022/05/16 03:01:10;;;;;;;2.13;1.00;;;18.60;53.10;;;;;;5093278;28;20043;-66
2022/05/16 03:03:36;;;;;;;3.28;0.73;;;18.60;53.10;;;;;;5093056;28;20036;-68
2022/05/16 03:06:02;;;;;;;4.05;0.70;;;18.60;53.10;;;;;;5092843;28;20040;-67
2022/05/16 03:08:28;;;;;;;2.90;0.90;;;18.60;53.10;;;;;;5093156;28;20044;-70
2022/05/16 03:10:53;;;;;;;2.65;0.98;;;18.60;53.10;;;;;;5094056;28;20475;-70
2022/05/16 03:13:19;;;;;;;3.05;0.75;;;18.60;53.10;;;;;;5092691;28;20040;-72
2022/05/16 03:15:45;;;;;;;3.85;0.82;;;18.60;53.10;;;;;;5092118;28;20129;-71
2022/05/16 03:18:10;;;;;;;4.72;0.93;;;18.60;53.10;;;;;;5094059;28;20132;-71
2022/05/16 03:20:36;;;;;;;3.50;0.88;;;18.60;53.10;;;;;;5093909;28;20093;-72
2022/05/16 03:23:02;;;;;;;3.10;1.00;;;18.50;53.00;;;;;;5092769;28;20035;-67
2022/05/16 03:25:28;;;;;;;2.85;1.13;;;18.60;53.10;;;;;;5092838;28;20098;-69
2022/05/16 03:27:53;;;;;;;2.83;1.10;;;18.50;53.10;;;;;;5092652;28;20434;-71
2022/05/16 03:30:19;;;;;;;3.17;0.80;;;18.50;53.00;;;;;;5109293;28;20048;-70
2022/05/16 03:32:45;;;;;;;2.88;1.02;;;18.50;53.00;;;;;;5092300;28;20079;-66
2022/05/16 03:35:11;;;;;;;2.60;0.85;;;18.50;53.00;;;;;;5109215;28;20301;-71
2022/05/16 03:37:37;;;;;;;5.55;1.25;;;18.50;53.00;;;;;;5093600;28;20040;-71
2022/05/16 03:42:49;;;;;;;4.30;1.25;;;18.50;53.00;;;;;;5092131;28;20044;-66
2022/05/16 03:45:15;;;;;;;2.45;0.80;;;18.50;53.00;;;;;;5092419;28;20043;-71
2022/05/16 03:47:40;;;;;;;3.13;0.70;;;18.50;53.00;;;;;;5092336;28;20044;-72
2022/05/16 03:50:06;;;;;;;3.60;0.80;;;18.50;53.00;;;;;;5093365;28;20028;-69
2022/05/16 03:52:33;;;;;;;3.20;0.73;;;18.50;52.90;;;;;;5091966;28;20071;-66
2022/05/16 03:54:58;;;;;;;1.92;0.60;;;18.40;52.90;;;;;;5091902;28;20048;-71
2022/05/16 03:57:24;;;;;;;3.42;0.70;;;18.50;52.90;;;;;;5093073;28;20040;-71
2022/05/16 03:59:49;;;;;;;2.47;0.98;;;18.40;52.80;;;;;;5091815;28;20071;-71
2022/05/16 04:02:15;;;;;;;4.13;1.15;;;18.40;52.80;;;;;;5108770;28;20185;-72
2022/05/16 04:04:41;;;;;;;2.53;1.20;;;18.40;52.80;;;;;;5091724;28;20036;-73
2022/05/16 04:07:07;;;;;;;3.35;0.90;;;18.40;52.90;;;;;;5091734;28;20109;-71
2022/05/16 04:09:32;;;;;;;5.10;1.30;;;18.40;52.80;;;;;;5091871;28;20122;-71
2022/05/16 04:12:02;;;;;;;2.53;0.88;;;18.40;52.80;;;;;;5093369;28;20044;-72
2022/05/16 04:14:28;;;;;;;2.40;0.90;;;18.40;52.80;;;;;;5091498;28;20480;-67
2022/05/16 04:16:53;;;;;;;3.10;0.68;;;18.40;52.80;;;;;;5091272;28;20048;-70
2022/05/16 04:19:20;;;;;;;2.35;0.95;;;18.40;52.80;;;;;;5091384;28;20508;-66
2022/05/16 04:21:46;;;;;;;2.13;0.70;;;18.40;52.70;;;;;;5091383;28;20549;-70
2022/05/16 04:24:11;;;;;;;4.55;0.85;;;18.40;52.70;;;;;;5092542;28;20044;-72
2022/05/16 04:26:37;;;;;;;2.15;0.70;;;18.40;52.70;;;;;;5091259;28;20039;-72
2022/05/16 04:29:03;;;;;;;2.40;1.05;;;18.40;52.70;;;;;;5092380;28;20039;-66
2022/05/16 04:31:29;;;;;;;5.80;1.13;;;18.40;52.70;;;;;;5091239;28;20499;-72
2022/05/16 04:33:54;;;;;;;3.15;0.70;;;18.40;52.70;;;;;;5091096;28;20062;-71
2022/05/16 04:36:20;;;;;;;3.20;1.00;;;18.40;52.70;;;;;;5091258;28;20048;-71
2022/05/16 04:38:46;;;;;;;2.33;0.70;;;18.40;52.70;;;;;;5092495;28;20036;-66
2022/05/16 04:43:57;;;;;;;3.95;1.00;;;18.40;52.70;;;;;;5091000;28;20054;-71
2022/05/16 04:46:22;;;;;;;3.05;0.88;;;18.40;52.60;;;;;;5091021;28;20126;-71
2022/05/16 04:48:48;;;;;;;3.53;1.13;;;18.40;52.70;;;;;;5091213;28;20131;-67
2022/05/16 04:51:13;;;;;;;4.75;0.57;;;18.40;52.60;;;;;;5090631;28;20447;-73
2022/05/16 04:53:39;;;;;;;2.70;1.38;;;18.40;52.60;;;;;;5090957;28;20044;-68
2022/05/16 04:56:05;;;;;;;4.82;0.90;;;18.40;52.60;;;;;;5091904;28;20051;-72
2022/05/16 04:58:33;;;;;;;4.38;0.88;;;18.40;52.50;;;;;;5091137;28;20066;-72
2022/05/16 05:01:00;;;;;;;3.55;0.93;;;18.40;52.60;;;;;;5091067;28;20040;-71
2022/05/16 05:03:29;;;;;;;3.67;1.13;;;18.40;52.60;;;;;;5091131;28;20118;-72
2022/05/16 05:05:57;;;;;;;2.65;0.88;;;18.40;52.60;;;;;;5090769;28;20075;-71
2022/05/16 05:08:23;;;;;;;3.20;0.80;;;18.40;52.60;;;;;;5091003;28;20128;-67
2022/05/16 05:16:30;;;;;;;2.80;1.00;;;18.40;52.50;;;;;;5090414;28;20270;-69
2022/05/16 05:18:56;;;;;;;1.92;0.80;;;18.40;52.50;;;;;;5090963;28;20028;-66
2022/05/16 05:21:22;;;;;;;1.65;0.50;;;18.40;52.50;;;;;;5088107;28;20047;-71
2022/05/16 05:23:47;;;;;;;2.10;0.40;;;18.40;53.40;;;;;;5089717;28;20044;-73
2022/05/16 05:26:14;;;;;;;2.15;0.70;;;18.40;52.80;;;;;;5083908;28;20394;-73
2022/05/16 05:28:40;;;;;;;2.25;0.40;;;18.50;52.90;;;;;;5088205;28;20097;-72
2022/05/16 05:31:11;;;;;;;3.72;0.82;;;18.60;52.80;;;;;;5088803;28;20084;-70
2022/05/16 05:33:37;;;;;;;3.65;0.80;;;18.60;52.90;;;;;;5089017;28;20056;-68
2022/05/16 05:36:03;;;;;;;3.45;0.60;;;18.60;52.80;;;;;;5090852;28;20109;-65
2022/05/16 05:38:28;;;;;;;3.15;0.52;;;18.60;52.70;;;;;;5089169;28;20039;-70
2022/05/16 05:40:54;;;;;;;2.90;0.70;;;18.70;52.80;;;;;;5090837;28;20032;-69
2022/05/16 05:43:20;;;;;;;2.55;0.75;;;18.70;52.80;;;;;;5088595;28;20062;-69
2022/05/16 05:45:46;;;;;;;1.80;0.45;;;18.70;52.80;;;;;;5089260;28;20120;-68
2022/05/16 05:48:12;;;;;;;1.92;1.13;;;18.80;52.70;;;;;;5090790;28;20119;-72
2022/05/16 05:50:40;;;;;;;4.93;0.68;;;18.80;52.70;;;;;;5089333;28;20042;-71
2022/05/16 05:53:06;;;;;;;2.65;0.88;;;18.80;53.40;;;;;;5086720;28;20121;-70
2022/05/16 05:55:31;;;;;;;4.20;0.60;;;18.80;52.60;;;;;;5094193;28;20544;-70
2022/05/16 05:57:57;;;;;;;3.75;1.10;;;18.80;52.60;;;;;;5087861;28;20040;-70
2022/05/16 06:00:23;;;;;;;3.20;1.08;;;18.80;52.60;;;;;;5086785;28;20043;-70
2022/05/16 06:02:49;;;;;;;3.47;0.80;;;18.80;52.60;;;;;;5076614;28;20059;-64
2022/05/16 06:05:18;;;;;;;1.83;0.90;;;18.80;52.70;;;;;;5067603;28;20040;-63
2022/05/16 06:07:47;;;;;;;3.58;1.15;;;18.90;52.70;;;;;;5083141;28;20043;-64
2022/05/16 06:10:12;;;;;;;3.17;0.73;;;18.80;52.80;;;;;;5099425;28;20479;-70
2022/05/16 06:12:39;;;;;;;2.67;0.63;;;18.80;52.70;;;;;;5077847;28;20033;-70
2022/05/16 06:15:06;;;;;;;5.38;1.23;;;18.80;52.70;;;;;;5069495;28;20130;-71
2022/05/16 06:17:32;;;;;;;3.08;1.05;;;18.80;52.70;;;;;;5085121;28;20059;-67
2022/05/16 06:19:57;;;;;;;3.88;0.60;;;18.80;52.70;;;;;;5089082;28;20388;-70
2022/05/16 06:22:24;;;;;;;3.13;0.55;;;18.80;52.70;;;;;;5085967;28;20692;-69
2022/05/16 06:27:35;;;;;;;4.55;1.13;;;18.80;52.60;;;;;;5070506;28;20081;-68
2022/05/16 06:30:00;;;;;;;3.10;0.68;;;18.90;52.80;;;;;;5075550;28;20159;-69
2022/05/16 06:32:26;;;;;;;5.03;0.73;;;18.90;52.90;;;;;;5073840;28;20059;-70
2022/05/16 06:34:52;;;;;;;4.03;1.08;;;18.90;52.80;;;;;;5079578;28;20511;-69
2022/05/16 06:37:18;;;;;;;3.72;1.23;;;18.90;52.90;;;;;;5077682;28;20098;-69
2022/05/16 06:39:45;;;;;;;4.22;1.48;;;18.90;52.90;;;;;;5071269;28;20047;-69
2022/05/16 06:42:14;;;;;;;3.67;0.82;;;19.00;53.00;;;;;;5074730;28;20892;-71
2022/05/16 06:44:41;;;;;;;6.78;0.63;;;19.00;52.90;;;;;;5070956;28;20488;-71
2022/05/16 06:47:09;;;;;;;2.33;0.80;;;19.00;52.90;;;;;;5071507;28;20048;-69
2022/05/16 06:49:35;;;;;;;3.92;1.42;;;19.00;52.90;;;;;;5070953;28;20042;-69
2022/05/16 06:52:01;;;;;;;4.93;0.93;;;19.00;52.90;;;;;;5073896;28;20469;-69
2022/05/16 06:54:26;;;;;;;3.70;0.90;;;19.00;52.90;;;;;;5079398;28;20048;-69
2022/05/16 06:56:52;;;;;;;5.65;0.80;;;19.10;53.00;;;;;;5076645;28;20067;-69
2022/05/16 06:59:20;;;;;;;4.75;0.80;;;19.00;52.90;;;;;;5068446;28;21323;-72
2022/05/16 07:01:46;;;;;;;2.95;1.33;;;19.10;53.00;;;;;;5067568;28;20031;-73
2022/05/16 07:04:12;;;;;;;4.88;0.73;;;19.10;52.90;;;;;;5066700;28;20033;-71
2022/05/16 07:06:38;;;;;;;3.50;0.85;;;19.10;53.00;;;;;;5072086;28;20467;-71
2022/05/16 07:09:04;;;;;;;5.07;1.38;;;19.10;53.70;;;;;;5072149;28;20071;-71
2022/05/16 07:11:32;;;;;;;5.45;0.73;;;19.10;52.90;;;;;;5071713;28;20087;-71
2022/05/16 07:13:58;;;;;;;4.55;0.90;;;19.10;52.90;;;;;;5086199;28;20063;-72
2022/05/16 07:16:24;;;;;;;6.40;0.95;;;19.20;53.00;;;;;;5066529;28;20040;-71
2022/05/16 07:18:50;;;;;;;2.78;0.60;;;19.20;53.00;;;;;;5075490;28;20694;-71
2022/05/16 07:21:15;;;;;;;6.95;1.40;;;19.20;52.90;;;;;;5064963;28;20048;-71
2022/05/16 07:23:45;;;;;;;3.47;0.60;;;19.20;52.90;;;;;;5067692;28;20437;-72
2022/05/16 07:28:57;;;;;;;3.22;0.88;;;19.30;53.60;;;;;;5067801;28;20797;-70
2022/05/16 07:31:23;;;;;;;4.22;0.63;;;19.30;54.20;;;;;;5065353;28;20052;-71
2022/05/16 07:33:48;;;;;;;5.18;1.00;;;19.40;54.40;;;;;;5068608;28;20491;-70
2022/05/16 07:36:14;;;;;;;3.97;0.95;;;19.50;54.40;;;;;;5085903;28;20041;-73
2022/05/16 07:38:40;;;;;;;3.42;0.60;;;19.50;54.10;;;;;;5067221;28;20480;-72
2022/05/16 07:41:05;;;;;;;3.00;0.95;;;19.60;53.90;;;;;;5065381;28;20221;-68
2022/05/16 07:43:31;;;;;;;2.90;0.90;;;19.70;53.80;;;;;;5065874;28;20036;-66
2022/05/16 07:45:57;;;;;;;6.63;0.90;;;19.70;53.60;;;;;;5066555;28;20039;-71
2022/05/16 07:48:23;;;;;;;2.38;0.68;;;19.80;53.50;;;;;;5065202;28;20036;-70
2022/05/16 07:50:49;;;;;;;3.00;0.57;;;19.80;53.30;;;;;;5067009;28;20042;-70
2022/05/16 07:53:15;;;;;;;2.30;0.65;;;19.80;53.20;;;;;;5066438;28;20044;-71
2022/05/16 07:55:44;;;;;;;2.50;0.70;;;19.80;53.00;;;;;;5065312;28;20105;-70
2022/05/16 07:58:10;;;;;;;3.97;1.48;;;19.90;53.00;;;;;;5067548;28;20531;-70
2022/05/16 08:00:36;;;;;;;2.83;0.70;;;19.90;53.20;;;;;;5070475;28;20032;-71
2022/05/16 08:03:02;;;;;;;5.47;0.93;;;20.00;53.20;;;;;;5069287;28;20879;-72
2022/05/16 08:05:28;;;;;;;5.70;1.00;;;20.10;53.00;;;;;;5067428;28;20132;-71
2022/05/16 08:10:46;;;;;;;3.45;0.60;;;20.10;52.80;;;;;;5069057;28;20777;-72
2022/05/16 08:13:11;;;;;;;2.55;0.60;;;20.20;52.70;;;;;;5066560;28;20044;-69
2022/05/16 08:15:40;;;;;;;4.47;0.50;;;20.20;52.70;;;;;;5067523;28;20207;-68
2022/05/16 08:18:07;;;;;;;5.68;1.10;;;20.30;53.00;;;;;;5067041;28;20086;-68
2022/05/16 08:20:33;;;;;;;4.43;0.90;;;20.30;52.90;;;;;;5070790;28;20044;-67
2022/05/16 08:22:59;;;;;;;3.60;0.65;;;20.40;52.80;;;;;;5066487;28;20041;-68
2022/05/16 08:25:25;;;;;;;2.42;0.88;;;20.40;52.60;;;;;;5069280;28;20033;-68
2022/05/16 08:27:51;;;;;;;3.88;0.90;;;20.40;52.50;;;;;;5064721;28;20047;-68
2022/05/16 08:30:18;;;;;;;3.65;1.17;;;20.40;52.50;;;;;;5070779;28;20373;-68
2022/05/16 08:32:44;;;;;;;2.28;0.50;;;20.50;52.50;;;;;;5077471;28;20120;-68
2022/05/16 08:35:11;;;;;;;5.25;0.93;;;20.50;52.40;;;;;;5071474;28;20041;-68
2022/05/16 08:44:00;;;;;;;2.80;0.60;;;20.70;52.80;;;;;;5047130;28;20416;-65
2022/05/16 08:49:39;;;;;;;3.45;0.80;;;20.90;52.90;;;;;;5048690;27;20422;-68
2022/05/16 08:55:06;;;;;;;5.97;1.02;;;21.10;52.50;;;;;;5087263;27;20342;-67
2022/05/16 08:57:37;;;;;;;4.95;1.00;;;21.40;52.60;;;;;;5090732;28;20093;-68
2022/05/16 09:00:10;;;;;;;2.55;0.68;;;21.50;52.20;;;;;;5093462;28;20062;-67
2022/05/16 09:02:41;;;;;;;3.83;0.95;;;21.70;52.30;;;;;;5087123;28;20155;-70
2022/05/16 09:05:29;;;;;;;3.38;0.98;;;21.70;52.10;;;;;;5090264;28;20048;-67
2022/05/16 09:07:57;;;;;;;5.63;1.00;;;21.80;52.10;;;;;;5088298;28;20158;-68
2022/05/16 09:10:25;;;;;;;4.30;0.63;;;21.80;52.00;;;;;;5084138;28;20044;-63
2022/05/16 09:13:20;;;;;;;1.90;0.50;;;21.90;51.90;;;;;;5103914;28;20449;-68
2022/05/16 09:18:51;;;;;;;6.95;1.13;;;22.00;51.90;;;;;;5107680;27;20431;-68
2022/05/16 09:21:27;;;;;;;3.50;0.52;;;22.30;50.90;;;;;;5091832;28;20055;-67
2022/05/16 09:29:42;;;;;;;2.88;0.60;;;22.60;50.30;;;;;;5089012;27;20383;-68
2022/05/16 09:32:13;;;;;;;2.88;0.70;;;22.50;49.90;;;;;;5047048;28;20051;-68
2022/05/16 09:34:39;;;;;;;3.63;0.50;;;22.50;49.90;;;;;;5056577;28;20040;-67
2022/05/16 09:37:08;;;;;;;5.68;0.80;;;22.50;49.90;;;;;;5050530;28;20043;-67
2022/05/16 09:39:35;;;;;;;3.67;0.52;;;22.50;50.00;;;;;;5056640;28;20503;-68
2022/05/16 09:45:13;;;;;;;3.78;0.70;;;22.50;50.20;;;;;;5066455;27;21061;-69
2022/05/16 09:47:41;;;;;;;4.00;0.77;;;22.50;49.90;;;;;;5031300;28;20056;-68
2022/05/16 09:58:17;;;;;;;1.92;0.60;;;22.60;49.70;;;;;;5115715;27;20390;-68
2022/05/16 10:00:52;;;;;;;2.17;0.80;;;22.70;49.20;;;;;;5070947;28;20880;-65
2022/05/16 10:09:14;;;;;;;2.70;0.50;;;22.70;49.30;;;;;;5052564;27;20208;-67
2022/05/16 10:11:43;;;;;;;3.05;0.70;;;22.60;49.30;;;;;;5049947;28;20052;-68
2022/05/16 10:14:09;;;;;;;2.75;0.70;;;22.50;49.50;;;;;;5050621;28;20059;-68
2022/05/16 10:16:42;;;;;;;3.72;1.08;;;22.50;49.70;;;;;;5062545;28;20044;-68
2022/05/16 10:19:11;;;;;;;3.92;0.60;;;22.40;49.80;;;;;;5047232;28;20041;-66
2022/05/16 10:21:49;;;;;;;2.90;0.75;;;22.40;50.00;;;;;;5050438;28;20202;-68
2022/05/16 10:24:18;;;;;;;2.47;0.63;;;22.30;50.10;;;;;;5053504;28;20095;-67
2022/05/16 10:26:46;;;;;;;3.30;0.80;;;22.30;50.30;;;;;;5047610;28;20579;-67
2022/05/16 10:29:16;;;;;;;3.80;0.75;;;22.20;50.30;;;;;;5064054;28;20059;-68
2022/05/16 10:37:32;;;;;;;3.45;0.77;;;22.20;51.40;;;;;;5104725;27;20433;-70
2022/05/16 10:40:37;;;;;;;4.82;1.15;;;22.30;51.60;;;;;;5101813;27;20036;-68
2022/05/16 10:43:43;;;;;;;4.35;0.88;;;22.30;51.80;;;;;;5109703;28;20634;-67
2022/05/16 10:46:15;;;;;;;5.10;1.00;;;22.30;51.90;;;;;;5106546;27;20039;-67
2022/05/16 10:49:03;;;;;;;5.28;1.67;;;22.30;51.80;;;;;;5138275;27;20039;-71
2022/05/16 10:54:21;;;;;;;3.85;1.27;;;22.30;52.00;;;;;;5153382;27;20463;-71
2022/05/16 11:00:07;;;;;;;5.03;0.88;;;22.20;52.00;;;;;;5106746;27;1182377;-69
2022/05/16 11:10:45;;;;;;;5.80;0.82;;;22.20;52.10;;;;;;5078595;27;20831;-69
2022/05/16 11:15:56;;;;;;;6.55;0.80;;;22.10;53.60;;;;;;5087263;27;20455;-66
2022/05/16 11:40:58;;;;;;;2.90;0.63;;;22.40;54.40;;;;;;5067345;27;20168;-67
2022/05/16 11:43:30;;;;;;;4.75;0.70;;;22.30;54.20;;;;;;5059367;28;20069;-70
2022/05/16 11:46:38;;;;;;;10.02;0.95;;;22.30;54.10;;;;;;5063992;28;20052;-67
2022/05/16 11:49:20;;;;;;;3.83;0.88;;;22.30;54.20;;;;;;5065822;28;20621;-68
2022/05/16 11:54:46;;;;;;;4.30;0.90;;;22.30;54.10;;;;;;5057301;28;20467;-70
2022/05/16 12:02:51;;;;;;;6.95;1.17;;;22.40;53.90;;;;;;5064076;27;20517;-70
2022/05/16 12:14:07;;;;;;;4.22;0.90;;;22.70;55.80;;;;;;5092300;27;20459;-69
2022/05/16 12:16:50;;;;;;;5.25;0.57;;;22.80;55.30;;;;;;5085044;28;20142;-69
2022/05/16 12:19:41;;;;;;;5.28;1.20;;;22.80;55.30;;;;;;5103473;27;20055;-68
2022/05/16 12:27:43;;;;;;;11.00;1.25;;;22.80;55.10;;;;;;5081031;27;21006;-67
2022/05/16 12:30:14;;;;;;;6.78;1.05;;;22.70;55.10;;;;;;5070310;28;20115;-69
2022/05/16 12:32:49;;;;;;;3.63;1.10;;;22.70;55.10;;;;;;5067085;28;20154;-71
2022/05/16 12:35:35;;;;;;;3.33;0.90;;;22.70;55.00;;;;;;5069732;28;20130;-68
2022/05/16 12:38:01;;;;;;;6.65;0.82;;;22.70;54.80;;;;;;5068862;28;20044;-68
2022/05/16 12:43:47;;;;;;;3.75;0.90;;;22.70;54.80;;;;;;5048359;27;20429;-68
2022/05/16 12:46:53;;;;;;;5.25;0.65;;;22.80;54.50;;;;;;5066035;28;20049;-68
2022/05/16 12:55:59;;;;;;;4.93;0.55;;;22.70;54.20;;;;;;5116798;27;1161976;-68
2022/05/16 13:07:03;;;;;;;8.60;2.08;;;22.90;55.40;;;;;;5120217;27;20387;-66
2022/05/16 13:12:23;;;;;;;3.60;0.70;;;23.10;55.00;;;;;;5101816;27;20457;-67
2022/05/16 13:17:44;;;;;;;5.57;1.20;;;23.10;54.50;;;;;;5103399;27;20990;-66
2022/05/16 13:20:19;;;;;;;2.38;0.90;;;23.20;54.20;;;;;;5097743;28;20059;-64
2022/05/16 13:22:48;;;;;;;5.30;0.82;;;23.20;54.10;;;;;;5093982;28;20073;-66
2022/05/16 13:25:15;;;;;;;3.47;1.27;;;23.30;54.00;;;;;;5084062;28;20701;-69
2022/05/16 13:30:34;;;;;;;3.22;1.17;;;23.30;53.90;;;;;;5094889;28;20044;-70
2022/05/16 13:33:00;;;;;;;3.95;1.33;;;23.40;53.80;;;;;;5099183;28;20096;-72
2022/05/16 13:38:13;;;;;;;29.20;4.50;;;23.50;54.30;;;;;;5125795;27;20143;-70
2022/05/16 13:40:42;;;;;;;15.32;3.65;;;23.50;54.10;;;;;;5123911;28;20055;-73
2022/05/16 13:43:21;;;;;;;12.05;2.47;;;23.60;54.20;;;;;;5122040;28;20067;-73
2022/05/16 13:45:46;;;;;;;8.23;1.90;;;23.60;54.20;;;;;;5125363;28;20042;-73
2022/05/16 13:48:15;;;;;;;8.15;2.25;;;23.60;54.00;;;;;;5138313;27;20039;-73
2022/05/16 13:50:47;;;;;;;5.43;1.33;;;23.60;53.90;;;;;;5123267;27;20045;-68
2022/05/16 13:53:16;;;;;;;4.22;1.40;;;23.60;53.80;;;;;;5125825;28;20036;-71
2022/05/16 13:55:45;;;;;;;8.63;1.52;;;23.60;53.70;;;;;;5122357;28;20121;-74
2022/05/16 13:58:13;;;;;;;4.13;1.38;;;23.60;53.70;;;;;;5125357;28;20043;-72
2022/05/16 14:00:44;;;;;;;5.45;1.70;;;23.50;53.60;;;;;;5123111;28;20092;-72
2022/05/16 14:06:04;;;;;;;4.93;1.48;;;23.50;53.50;;;;;;5124438;27;20500;-72
2022/05/16 14:08:40;;;;;;;3.85;1.42;;;23.50;53.50;;;;;;5120001;28;20491;-71
2022/05/16 14:11:08;;;;;;;3.95;1.13;;;23.50;53.50;;;;;;5113982;28;20437;-71
2022/05/16 14:13:40;;;;;;;1.83;1.13;;;23.50;53.50;;;;;;5115283;28;20043;-72
2022/05/16 14:16:12;;;;;;;3.85;1.20;;;23.50;53.60;;;;;;5111386;27;20074;-66
2022/05/16 14:21:43;;;;;;;6.85;1.58;;;23.50;53.70;;;;;;5137988;27;1174753;-72
2022/05/16 14:24:11;;;;;;;3.72;1.75;;;23.50;53.70;;;;;;5126987;27;20035;-71
2022/05/16 14:29:22;;;;;;;4.93;1.60;;;23.50;53.80;;;;;;5139360;27;1187524;-72
2022/05/16 14:42:42;;;;;;;1.98;1.40;;;23.50;53.70;;;;;;5127855;27;20410;-73
2022/05/16 14:47:53;;;;;;;2.85;1.05;;;23.50;53.70;;;;;;5107685;27;20420;-73
2022/05/16 14:50:24;;;;;;;3.58;1.45;;;23.50;53.60;;;;;;5107254;28;20118;-72
2022/05/16 14:52:53;;;;;;;3.78;1.35;;;23.50;53.70;;;;;;5106858;28;20040;-74
2022/05/16 14:55:25;;;;;;;2.63;1.33;;;23.50;53.70;;;;;;5106225;28;20105;-73
2022/05/16 14:57:51;;;;;;;3.53;1.27;;;23.40;53.70;;;;;;5106669;28;20048;-74
2022/05/16 15:05:52;;;;;;;2.42;1.35;;;23.20;54.10;;;;;;5106629;28;20040;-74
2022/05/16 15:08:23;;;;;;;4.03;2.05;;;23.20;54.20;;;;;;5106996;28;20403;-74
2022/05/16 15:10:50;;;;;;;2.90;1.27;;;23.10;54.40;;;;;;5109194;28;20081;-74
2022/05/16 15:13:16;;;;;;;2.00;1.20;;;23.10;54.50;;;;;;5109447;28;20073;-73
2022/05/16 15:15:43;;;;;;;4.72;1.40;;;23.00;54.50;;;;;;5109424;28;20067;-73
2022/05/16 15:18:09;;;;;;;3.13;1.10;;;23.00;54.50;;;;;;5109179;28;20035;-73
2022/05/16 15:20:35;;;;;;;3.63;1.30;;;23.00;54.60;;;;;;5109086;28;20118;-65
2022/05/16 15:23:01;;;;;;;3.20;1.20;;;22.90;54.60;;;;;;5108118;28;20092;-74
2022/05/16 15:25:27;;;;;;;2.65;1.20;;;22.90;54.80;;;;;;5107840;28;20044;-73
2022/05/16 15:27:52;;;;;;;2.90;1.92;;;22.80;54.70;;;;;;5109089;28;20039;-74
2022/05/16 15:30:18;;;;;;;2.17;1.90;;;22.80;54.80;;;;;;5107685;28;20043;-73
2022/05/16 15:32:44;;;;;;;4.13;1.50;;;22.80;55.00;;;;;;5107867;28;20040;-74
2022/05/16 15:35:10;;;;;;;2.60;1.33;;;22.80;55.10;;;;;;5108618;28;20043;-73
2022/05/16 15:37:36;;;;;;;3.17;1.83;;;22.70;55.10;;;;;;5107608;28;20047;-73
2022/05/16 15:40:03;;;;;;;4.20;1.80;;;22.70;55.10;;;;;;5107563;28;20040;-73
2022/05/16 15:42:29;;;;;;;5.03;1.85;;;22.70;55.30;;;;;;5107383;28;20048;-73
2022/05/16 15:44:58;;;;;;;2.88;1.90;;;22.70;55.40;;;;;;5107138;28;20480;-73
2022/05/16 15:47:26;;;;;;;2.63;2.00;;;22.60;55.40;;;;;;5106962;28;20043;-73
2022/05/16 15:49:53;;;;;;;3.35;1.77;;;22.70;55.40;;;;;;5108385;28;20043;-72
2022/05/16 15:52:21;;;;;;;2.72;1.83;;;22.60;55.40;;;;;;5107303;28;20044;-74
2022/05/16 15:54:47;;;;;;;2.40;1.45;;;22.60;55.50;;;;;;5107554;28;20169;-73
2022/05/16 15:57:13;;;;;;;4.30;1.88;;;22.60;55.50;;;;;;5105079;28;20075;-73
2022/05/16 15:59:40;;;;;;;3.05;1.70;;;22.50;55.50;;;;;;5093506;28;20119;-75
2022/05/16 16:02:14;;;;;;;5.63;2.55;;;22.50;55.50;;;;;;5093569;28;20075;-74
2022/05/16 16:10:13;;;;;;;4.15;2.83;;;22.40;55.90;;;;;;5093295;28;20048;-73
2022/05/16 16:12:38;;;;;;;5.15;3.22;;;22.40;56.10;;;;;;5094463;28;20039;-74
2022/05/16 16:15:04;;;;;;;6.38;3.60;;;22.40;56.20;;;;;;5094824;28;20364;-74